This is the latest recevied weather packets stored in our database for station/object IK2CIR-3. If no packets are shown the sender has not sent any weather packets the latest 10 day(s).
| Time | Temp. | Humidity | Pressure | Rain* | Wind** | Luminosity | Snow |
|---|---|---|---|---|---|---|---|
| 1777773564 | 12.22° C | 51% | 1018.7 hPa | - | - | - | - |
| 1777766364 | 14.44° C | 43% | 1019.3 hPa | - | - | - | - |
| 1777759163 | 16.11° C | 39% | 1019.7 hPa | - | - | - | - |
| 1777751963 | 17.78° C | 35% | 1020.1 hPa | - | - | - | - |
| 1777744763 | 22.22° C | 28% | 1019.5 hPa | - | - | - | - |
| 1777737562 | 27.22° C | 23% | 1020 hPa | - | - | - | - |
| 1777730362 | 30.56° C | 21% | 1021.2 hPa | - | - | - | - |
| 1777723162 | 28.89° C | 22% | 1022.9 hPa | - | - | - | - |
| 1777715961 | 27.22° C | 24% | 1024.6 hPa | - | - | - | - |
| 1777708761 | 22.22° C | 38% | 1025.2 hPa | - | - | - | - |
| 1777701561 | 17.22° C | 45% | 1025.6 hPa | - | - | - | - |
| 1777694361 | 8.89° C | 53% | 1025.5 hPa | - | - | - | - |
| 1777687160 | 9.44° C | 49% | 1025.6 hPa | - | - | - | - |
| 1777679960 | 11.11° C | 43% | 1025.7 hPa | - | - | - | - |
| 1777672760 | 12.78° C | 39% | 1025.4 hPa | - | - | - | - |
| 1777665560 | 15° C | 30% | 1025 hPa | - | - | - | - |
| 1777658359 | 19.44° C | 24% | 1024.2 hPa | - | - | - | - |
| 1777651120 | 23.89° C | 21% | 1024.4 hPa | - | - | - | - |
| 1777643919 | 26.11° C | 21% | 1025.3 hPa | - | - | - | - |
| 1777636719 | 23.89° C | 22% | 1026.4 hPa | - | - | - | - |
| 1777629518 | 21.11° C | 27% | 1027.4 hPa | - | - | - | - |
| 1777622318 | 17.78° C | 34% | 1027.4 hPa | - | - | - | - |
| 1777615118 | 14.44° C | 42% | 1026.9 hPa | - | - | - | - |
| 1777607917 | 9.44° C | 51% | 1025.9 hPa | - | - | - | - |
| 1777600717 | 10° C | 48% | 1025.7 hPa | - | - | - | - |
* Rain since midnight (hover to see other rain measurements)
** Current wind speed in m/s (hover to see current wind gust speed)